Pearsall, TX (78061)

1:48 AM CDT on May 06, 2015 (GMT -0500)
Rocky Ridge Ranch | | Change Station
CLOSE
Current Station
Personal Weather Station
Location: Pearsall, TX
Elevation: 571 ft
Nearby Weather Stations

Elev 571 ft 28.84 °N, 99.15 °W | Updated 14 seconds ago

Overcast
Overcast
72.4 °F
Feels Like 72.4 °F
N
8.6
Wind Variable Wind from SE
Gusts 12.0 mph

Today
High -- | Low -- °F
--% Chance of Precip.
Yesterday
High -- | Low -- °F
Precip. -- in
6:51 AM 8:15 PM
Waning Gibbous, 95% visible
Pressure 29.88 in
Visibility 10.0 miles
Clouds Few 1800 ft
Mostly Cloudy 2900 ft
Dew Point 70 °F
Humidity 93%
Rainfall 0.00 in
Snow Depth Not available.
UV 0 out of 12
Pollen 6.30 out of 12
Air Quality Not available.
Flu Activity Sporadic
METAR KCOT 060553Z AUTO 14013KT 10SM FEW018 BKN029 24/20 A2990 RMK AO2 RAE0455 SLP119 P0000 60000 T02390200 10250 20239 402500222 50010

More Conditions Fewer Conditions

Pressure 29.88 in
Visibility 10.0 miles
Clouds Few 1800 ft
Mostly Cloudy 2900 ft
Dew Point 70 °F
Humidity 93%
Rainfall 0.00 in
Snow Depth Not available.
UV 0 out of 12
Pollen 6.30 out of 12
Air Quality Not available.
Flu Activity Sporadic
METAR KCOT 060553Z AUTO 14013KT 10SM FEW018 BKN029 24/20 A2990 RMK AO2 RAE0455 SLP119 P0000 60000 T02390200 10250 20239 402500222 50010

More Conditions Fewer Conditions

10-Day Weather Forecast

Almanac

Astronomy

May. 06, 2015 Rise Set
Actual Time
Civil Twilight
Nautical Twilight
Astronomical Twilight
Moon
Length of Visible Light
Length of Day
Tomorrow will be .
, % of the Moon is Illuminated

Today's Extremes

State Highs State Lows

Community

WunderPhotos

Upload Photos

1,818,850 photos uploaded!

WunderBlogs® & News

Nearby

Air Quality

  Air Quality AQ Index Pollutant
Not available.

Snow Depth

Station Depth Elevation

Earthquake Activity

City Distance Mag. Time & Date
Minimum magnitude displayed is 2.5.

Coastal Water Temperatures

Place Temperature

Stations

Nearby Weather Stations

Station Location Temp. Windchill Dew Point Humidity Wind Precip. Elev Updated Type